Warning: Javascript must be enabled to use all the features on this page!


Page Loading - Please Wait...

Click to hideNews Bulletins
  • Notice of planned maintenance to underlying USGS network September 24-26, 2021: During this maintenance period users may experience intermittent periods of inaccessibility or delayed delivery of hydrologic data to the USGS National Water Information System (NWIS). Please email gs-w_support_nwisweb@usgs.gov with any concerns regarding impacts to data delivery.
  • Explore the NEW USGS National Water Dashboard interactive map to access real-time water data from over 13,500 stations nationwide.
  • Full News RSS icon

Peak Streamflow for the Nation

USGS 06062500 Tenmile Creek near Rimini MT

Lewis And Clark County, Montana
Hydrologic Unit Code 10030101
Latitude  46°31'26.03", Longitude 112°15'23.93" NAD83
Drainage area 33  square miles
Gage datum 4,850 feet above NAVD88
Output formats
Table
Graph
Tab-separated file
peakfq (watstore) format
Reselect output format
Water
Year
Date Gage
Height
(feet)
Stream-
flow
(cfs)
1915 1915-06-16   471
1916 1916-06-28   296
1917 1917-05-27   781
1918 1918-06-07   172
1919 1919-05-20   80.0
1920 1920-06-07   299
1921 1921-05-17   373
1922 1922-05-25   385
1923 1923-05-24   173
1924 1924-05-16   367
1925 1925-05-18   173
1926 1926-04-19   200
1927 1927-06-11   703
1928 1928-05-09   249
1929 1929-05-23   400
1930 1930-04-24   179
1931 1931-05-13   41.0
1932 1932-05-13   195
1933 1933-05-31   258
1934 1934-06-07   143
1935 1935-05-23 2.20 81.0
1936 1936-06-08 1.81 66.0
1937 1937-05-20 2.15 134
1938 1938-05-26 3.62 490
1939 1939-04-29 2.59 136
1940 1940-05-10 2.41 96.0
1941 1941-06-05 2.86 209
1942 1942-05-25 2.96 242
1943 1943-05-27 2.93 297
1944 1944-06-27 2.89 253
1945 1945-06-10 2.89 231
1946 1946-05-28 2.28 73.0
1947 1947-05-08 3.17 338
1948 1948-05-21 3.35 403
1949 1949-05-13 2.49 107
1950 1950-06-18 3.02 319
1951 1951-06-11 2.92 289
1952 1952-04-27 2.75 242
1953 1953-06-02 3.56 469
1954 1954-06-10 2.40 111
1955 1955-05-21 2.52 145
1956 1956-05-20 2.73 219
1957 1957-05-26 2.47 145
1958 1958-05-11 2.69 216
1959 1959-06-06 2.53 202
1960 1960-05-12 2.71 274
1961 1961-05-25 2.49 186
1962 1962-05-26 2.51 222
1963 1963-05-25 2.68 152
1964 1964-06-09 3.77 563
1965 1965-06-17 2.97 246
1966 1966-05-06 2.55 142
1967 1967-05-23 3.01 320
1968 1968-06-09 2.80 278
1969 1969-07-07 2.90 308
1970 1970-05-26 2.66 218
1971 1971-05-31 2.97 177
1972 1972-06-01 3.06 204
1973 1973-05-17 2.71 110
1974 1974-05-27 3.10 220
1975 1975-06-19 4.89 995
1976 1976-05-14 3.52 379
1977 1977-04-26 2.19 29.0
1978 1978-05-22 3.23 237
1979 1979-05-26 3.18 234
1980 1980-05-31 3.08 208
1981 1981-05-22 6.20 3,290
1982 1982-06-13 2.93 252
1983 1983-05-26 3.52 253
1984 1984-05-15 3.36 224
1985 1985-05-03 2.83 111
1986 1986-05-28 3.23 202
1987 1987-05-27 2.96 145
1988 1988-05-16 2.89 132
1989 1989-05-10 3.15 184
1990 1990-05-30 2.89 135
1991 1991-05-21 3.04 171
1992 1992-06-16 3.04 182
1993 1993-06-16 3.20 198
1994 1994-04-22 3.06 193
1997 1997-06-11 3.50 306
1998 1998-06-20 3.27 222
1999 1999-06-03 3.18 214
2000 2000-07-03 2.11 29.0
2001 2001-05-14 2.87 123
2002 2002-06-14 2.90 133
2003 2003-05-26 3.13 193
2004 2004-05-26 2.49 73.0
2005 2005-06-03 3.33 227
2006 2006-06-10 3.18 202
2007 2007-05-29 2.75 118
2008 2008-05-24 3.23 212
2009 2009-05-19 3.67 334
2010 2010-06-16 3.51 323
2011 2011-06-07 4.31 742
2012 2012-04-26 3.15 199
2013 2013-05-13 2.74 108
2014 2014-05-24 3.42 279
2015 2015-05-16 3.10 186
2016 2016-04-23 2.89 139
2017 2017-05-23 2.85 131
2018 2018-06-19 4.40 811
2019 2019-05-26 3.40 246
2020 2020-06-29 3.50R 286R
?
  Peak Gage-Height Qualification Codes.
?
  Peak Streamflow Qualification Codes.